Time;durP1;ratioP1;P1;durP2;ratioP2;P2;SDS_P1;SDS_P2;PMS_P1;PMS_P2;Temp;Humidity;BMP_temperature;BMP_pressure;BME280_temperature;BME280_humidity;BME280_pressure;Samples;Min_cycle;Max_cycle;Signal;HPM_P1;HPM_P2
2024/03/02 00:01:19;;;;;;;1.30;0.63;;;;;5.80;99282.00;;;;10398856;28;20219;-80
2024/03/02 00:06:21;;;;;;;1.23;0.57;;;;;5.80;99271.00;;;;10421594;28;20227;-80
2024/03/02 00:11:23;;;;;;;0.67;0.50;;;;;5.70;99275.00;;;;10384586;28;20994;-80
2024/03/02 00:16:31;;;;;;;0.30;0.30;;;;;5.70;99271.00;;;;10360561;28;20627;-80
2024/03/02 00:21:33;;;;;;;0.53;0.37;;;;;5.70;99269.00;;;;10404156;28;20237;-80
2024/03/02 00:26:34;;;;;;;0.53;0.47;;;;;5.60;99275.00;;;;10376036;28;20217;-77
2024/03/02 00:31:35;;;;;;;0.77;0.43;;;;;5.60;99280.00;;;;10372431;28;20324;-77
2024/03/02 00:36:36;;;;;;;0.87;0.37;;;;;5.60;99277.00;;;;10360138;28;20240;-77
2024/03/02 00:41:44;;;;;;;0.70;0.60;;;;;5.60;99291.00;;;;10394435;28;20263;-78
2024/03/02 00:46:45;;;;;;;0.87;0.63;;;;;5.60;99265.00;;;;10403905;28;20313;-76
2024/03/02 00:51:51;;;;;;;0.53;0.50;;;;;5.70;99264.00;;;;10370947;28;20723;-78
2024/03/02 00:56:55;;;;;;;0.43;0.40;;;;;5.70;99272.00;;;;10402337;28;20234;-78
2024/03/02 01:01:57;;;;;;;1.47;0.30;;;;;5.70;99323.00;;;;10369045;28;20323;-77
2024/03/02 01:06:59;;;;;;;0.50;0.40;;;;;5.80;99273.00;;;;10370336;28;20222;-77
2024/03/02 01:12:00;;;;;;;1.17;0.40;;;;;5.70;99305.00;;;;10369507;28;20306;-77
2024/03/02 01:17:04;;;;;;;0.70;0.40;;;;;5.80;99306.00;;;;10372522;28;20223;-78
2024/03/02 01:22:05;;;;;;;1.40;0.70;;;;;5.80;99316.00;;;;10360215;28;20282;-79
2024/03/02 01:27:06;;;;;;;0.80;0.50;;;;;5.80;99329.00;;;;10373386;28;20250;-78
2024/03/02 01:32:07;;;;;;;0.30;0.23;;;;;5.80;99316.00;;;;10374155;28;20258;-78
2024/03/02 01:37:10;;;;;;;1.13;0.50;;;;;5.80;99318.00;;;;10366154;28;20309;-78
2024/03/02 01:42:11;;;;;;;0.70;0.60;;;;;5.80;99325.00;;;;10384186;28;20235;-79
2024/03/02 01:47:12;;;;;;;1.00;0.37;;;;;5.70;99319.00;;;;10339176;28;20242;-77
2024/03/02 01:52:13;;;;;;;0.73;0.50;;;;;5.70;99331.00;;;;10370354;28;20218;-77
2024/03/02 01:57:15;;;;;;;0.40;0.33;;;;;5.70;99334.00;;;;10319821;28;20235;-77
2024/03/02 02:02:16;;;;;;;0.63;0.40;;;;;5.80;99326.00;;;;10330766;28;20227;-78
2024/03/02 02:07:17;;;;;;;1.97;0.60;;;;;5.80;99347.00;;;;10351353;28;20276;-76
2024/03/02 02:12:19;;;;;;;1.10;0.40;;;;;5.90;99335.00;;;;10331788;28;20863;-77
2024/03/02 02:17:20;;;;;;;1.50;0.60;;;;;6.00;99326.00;;;;10334904;28;20234;-78
2024/03/02 02:22:21;;;;;;;1.30;0.80;;;;;6.00;99326.00;;;;10343896;28;20953;-76
2024/03/02 02:27:22;;;;;;;2.60;0.57;;;;;6.00;99323.00;;;;10338969;28;20249;-78
2024/03/02 02:32:23;;;;;;;0.50;0.30;;;;;6.00;99332.00;;;;10355960;28;20461;-77
2024/03/02 02:37:24;;;;;;;1.53;0.80;;;;;6.00;99324.00;;;;10363952;28;20257;-76
2024/03/02 02:42:26;;;;;;;1.33;0.50;;;;;6.00;99312.00;;;;10376622;28;20226;-77
2024/03/02 02:47:29;;;;;;;1.77;0.50;;;;;6.00;99321.00;;;;10382356;28;20892;-79
2024/03/02 02:52:35;;;;;;;2.33;0.70;;;;;6.00;99320.00;;;;10334097;28;20245;-82
2024/03/02 02:57:38;;;;;;;3.00;0.90;;;;;6.00;99326.00;;;;10334989;28;20227;-82
2024/03/02 03:02:41;;;;;;;5.17;0.60;;;;;6.00;99317.00;;;;10308349;28;20254;-81
2024/03/02 03:07:44;;;;;;;1.67;0.70;;;;;5.90;99315.00;;;;10323108;28;20220;-82
2024/03/02 03:12:45;;;;;;;2.77;0.80;;;;;5.70;99312.00;;;;10333008;28;20618;-81
2024/03/02 03:17:47;;;;;;;2.37;0.67;;;;;5.60;99312.00;;;;10358396;28;20218;-82
2024/03/02 03:22:49;;;;;;;3.23;0.70;;;;;5.40;99315.00;;;;10350890;28;20288;-82
2024/03/02 03:27:52;;;;;;;0.57;0.40;;;;;5.30;99306.00;;;;10345987;28;20325;-81
2024/03/02 03:32:53;;;;;;;4.30;0.70;;;;;5.20;99314.00;;;;10337821;28;20223;-82
2024/03/02 03:37:54;;;;;;;4.70;0.70;;;;;5.20;99307.00;;;;10369984;28;20321;-81
2024/03/02 03:42:56;;;;;;;3.27;0.73;;;;;5.20;99300.00;;;;10360293;28;20819;-82
2024/03/02 03:47:57;;;;;;;0.37;0.37;;;;;5.30;99299.00;;;;10374748;28;20218;-82
2024/03/02 03:52:59;;;;;;;2.63;0.60;;;;;5.20;99312.00;;;;10354972;28;21018;-81
2024/03/02 03:58:00;;;;;;;2.03;0.60;;;;;5.20;99305.00;;;;10371200;28;20301;-79
2024/03/02 04:03:02;;;;;;;1.80;0.60;;;;;5.10;99310.00;;;;10350413;28;20226;-79
2024/03/02 04:08:03;;;;;;;0.43;0.43;;;;;5.20;99318.00;;;;10346216;28;20310;-79
2024/03/02 04:13:05;;;;;;;2.43;0.70;;;;;5.20;99321.00;;;;10377337;28;20223;-79
2024/03/02 04:18:06;;;;;;;3.20;0.60;;;;;5.20;99313.00;;;;10375145;28;20323;-79
2024/03/02 04:23:07;;;;;;;4.37;1.20;;;;;5.10;99318.00;;;;10367617;28;20222;-79
2024/03/02 04:28:08;;;;;;;2.00;0.60;;;;;5.00;99326.00;;;;10376968;28;20350;-79
2024/03/02 04:33:10;;;;;;;2.60;0.63;;;;;4.80;99330.00;;;;10357267;28;20248;-79
2024/03/02 04:38:11;;;;;;;1.33;0.60;;;;;4.70;99341.00;;;;10362741;28;20305;-79
2024/03/02 04:43:16;;;;;;;1.30;0.60;;;;;4.50;99330.00;;;;10345089;28;20222;-79
2024/03/02 04:48:17;;;;;;;2.23;0.70;;;;;4.40;99346.00;;;;10359901;28;20285;-79
2024/03/02 04:53:18;;;;;;;1.90;0.80;;;;;4.30;99352.00;;;;10363655;28;20234;-79
2024/03/02 04:58:19;;;;;;;1.20;0.93;;;;;4.20;99358.00;;;;10343407;28;20684;-79
2024/03/02 05:03:20;;;;;;;2.70;0.90;;;;;4.30;99350.00;;;;10354332;28;20318;-79
2024/03/02 05:08:21;;;;;;;4.57;1.30;;;;;4.20;99360.00;;;;10358597;28;20226;-77
2024/03/02 05:13:23;;;;;;;1.90;0.90;;;;;4.20;99369.00;;;;10338401;28;20242;-78
2024/03/02 05:18:24;;;;;;;7.43;1.30;;;;;4.10;99363.00;;;;10359975;28;20298;-77
2024/03/02 05:23:25;;;;;;;1.67;0.80;;;;;4.10;99365.00;;;;10360395;28;20280;-77
2024/03/02 05:28:26;;;;;;;2.83;0.83;;;;;4.00;99358.00;;;;10357941;28;20592;-77
2024/03/02 05:33:28;;;;;;;2.60;0.80;;;;;4.00;99359.00;;;;10347693;28;20222;-77
2024/03/02 05:38:29;;;;;;;2.20;0.90;;;;;4.00;99362.00;;;;10358447;28;20218;-77
2024/03/02 05:43:30;;;;;;;1.83;1.47;;;;;3.90;99365.00;;;;10346223;28;20247;-77
2024/03/02 05:48:31;;;;;;;1.57;0.83;;;;;3.90;99363.00;;;;10361898;28;20218;-77
2024/03/02 05:53:33;;;;;;;2.87;1.00;;;;;3.90;99368.00;;;;10331566;28;20257;-77
2024/03/02 06:03:58;;;;;;;2.57;0.90;;;;;3.90;99364.00;;;;10374432;28;20823;-77
2024/03/02 06:09:02;;;;;;;4.70;1.20;;;;;3.90;99368.00;;;;10377236;28;20272;-77
2024/03/02 06:14:04;;;;;;;2.97;1.47;;;;;3.90;99374.00;;;;10374296;28;20833;-77
2024/03/02 06:19:05;;;;;;;2.20;1.20;;;;;3.90;99382.00;;;;10366265;28;20254;-76
2024/03/02 06:24:06;;;;;;;5.53;0.90;;;;;4.00;99383.00;;;;10359840;28;20222;-78
2024/03/02 06:29:08;;;;;;;2.23;0.90;;;;;4.10;99388.00;;;;10369967;28;20591;-76
2024/03/02 06:34:09;;;;;;;2.57;0.93;;;;;4.20;99374.00;;;;10363068;28;20222;-77
2024/03/02 06:39:12;;;;;;;3.70;0.80;;;;;4.20;99385.00;;;;10372357;28;20232;-77
2024/03/02 06:44:13;;;;;;;6.47;1.57;;;;;4.20;99385.00;;;;10379877;28;20317;-77
2024/03/02 06:49:14;;;;;;;3.87;1.47;;;;;4.30;99387.00;;;;10363384;28;20262;-76
2024/03/02 06:54:15;;;;;;;3.80;1.17;;;;;4.30;99396.00;;;;10377639;28;20868;-77
2024/03/02 06:59:16;;;;;;;3.63;1.20;;;;;4.40;99391.00;;;;10377954;28;20305;-76
2024/03/02 07:04:17;;;;;;;2.80;0.87;;;;;4.50;99393.00;;;;10370848;28;20218;-76
2024/03/02 07:09:22;;;;;;;1.73;1.13;;;;;4.70;99408.00;;;;10387743;28;20396;-77
2024/03/02 07:14:53;;;;;;;4.83;1.20;;;;;5.00;99409.00;;;;10377970;28;20272;-76
2024/03/02 07:19:44;;;;;;;5.30;1.00;;;;;5.20;99415.00;;;;10378989;28;20227;-76
2024/03/02 07:24:45;;;;;;;1.90;0.60;;;;;5.30;99405.00;;;;10356587;28;20851;-76
2024/03/02 07:29:47;;;;;;;5.73;1.13;;;;;5.50;99412.00;;;;10362491;28;21008;-77
2024/03/02 07:34:48;;;;;;;3.00;0.90;;;;;5.90;99419.00;;;;10372630;28;20317;-77
2024/03/02 07:39:50;;;;;;;7.33;2.23;;;;;6.20;99399.00;;;;10376940;28;20587;-77
2024/03/02 07:44:51;;;;;;;7.00;0.97;;;;;6.40;99407.00;;;;10362890;28;20257;-77
2024/03/02 07:49:52;;;;;;;5.03;1.00;;;;;6.70;99403.00;;;;10400957;28;20306;-78
2024/03/02 07:54:54;;;;;;;2.83;1.23;;;;;6.90;99396.00;;;;10373647;28;20224;-79
2024/03/02 07:59:55;;;;;;;6.40;1.20;;;;;7.10;99399.00;;;;10360643;28;20234;-78
2024/03/02 08:04:56;;;;;;;3.20;1.17;;;;;7.30;99392.00;;;;10389011;28;20249;-79
2024/03/02 08:09:57;;;;;;;3.83;1.10;;;;;7.50;99406.00;;;;10390217;28;20248;-78
2024/03/02 08:14:58;;;;;;;2.80;1.47;;;;;7.80;99410.00;;;;10389471;28;20229;-78
2024/03/02 08:20:00;;;;;;;7.97;1.47;;;;;8.00;99413.00;;;;10375587;28;20317;-77
2024/03/02 08:25:02;;;;;;;6.37;1.47;;;;;8.20;99414.00;;;;10374540;28;20224;-78
2024/03/02 08:30:06;;;;;;;7.07;1.10;;;;;8.60;99423.00;;;;10368957;28;20217;-78
2024/03/02 08:35:07;;;;;;;3.30;1.10;;;;;9.10;99420.00;;;;10379857;28;20251;-79
2024/03/02 08:40:09;;;;;;;6.47;1.13;;;;;9.50;99425.00;;;;10388185;28;20730;-77
2024/03/02 08:45:10;;;;;;;5.27;1.30;;;;;9.80;99424.00;;;;10363410;28;20634;-77
2024/03/02 08:50:11;;;;;;;5.97;1.30;;;;;10.10;99419.00;;;;10376683;28;20309;-77
2024/03/02 08:55:13;;;;;;;5.53;2.07;;;;;10.40;99414.00;;;;10346421;28;20737;-77
2024/03/02 09:00:14;;;;;;;4.13;1.30;;;;;10.50;99426.00;;;;10373399;28;20577;-77
2024/03/02 09:05:15;;;;;;;6.17;1.30;;;;;10.80;99428.00;;;;10378153;28;20294;-77
2024/03/02 09:10:17;;;;;;;3.93;1.07;;;;;11.00;99422.00;;;;10352687;28;20221;-79
2024/03/02 09:15:18;;;;;;;7.20;1.60;;;;;11.20;99433.00;;;;10364883;28;20218;-79
2024/03/02 09:20:19;;;;;;;3.07;1.20;;;;;11.40;99414.00;;;;10365911;28;20230;-78
2024/03/02 09:25:20;;;;;;;3.30;1.33;;;;;11.60;99411.00;;;;10351630;28;20646;-78
2024/03/02 09:30:21;;;;;;;7.82;1.20;;;;;11.80;99406.00;;;;10378285;28;20883;-79
2024/03/02 09:35:22;;;;;;;4.68;1.23;;;;;12.00;99410.00;;;;10375219;28;20223;-77
2024/03/02 09:40:24;;;;;;;9.32;1.98;;;;;12.20;99399.00;;;;10371769;28;20809;-77
2024/03/02 09:45:26;;;;;;;6.00;1.60;;;;;12.80;99390.00;;;;10353876;28;20693;-77
2024/03/02 09:50:27;;;;;;;4.55;1.30;;;;;13.30;99385.00;;;;10379094;28;20815;-77
2024/03/02 09:55:29;;;;;;;7.10;1.40;;;;;14.10;99377.00;;;;10340251;28;21015;-78
2024/03/02 10:00:30;;;;;;;2.95;1.25;;;;;14.70;99373.00;;;;10355773;28;20226;-77
2024/03/02 10:05:31;;;;;;;3.10;1.40;;;;;14.90;99364.00;;;;10354000;28;20225;-76
2024/03/02 10:10:41;;;;;;;6.88;1.55;;;;;14.50;99373.00;;;;10362370;28;20223;-77
2024/03/02 10:15:42;;;;;;;6.70;1.38;;;;;14.70;99372.00;;;;10384003;28;20251;-78
2024/03/02 10:20:44;;;;;;;5.47;1.35;;;;;14.80;99374.00;;;;10377333;28;20229;-77
2024/03/02 10:25:45;;;;;;;4.82;1.20;;;;;15.00;99381.00;;;;10362758;28;20497;-77
2024/03/02 10:30:58;;;;;;;5.00;1.52;;;;;14.80;99391.00;;;;10352228;28;20249;-77
2024/03/02 10:36:00;;;;;;;4.43;1.35;;;;;14.90;99382.00;;;;10377203;28;20222;-78
2024/03/02 10:41:03;;;;;;;3.83;1.60;;;;;15.40;99377.00;;;;10355051;28;20230;-78
2024/03/02 10:46:04;;;;;;;4.25;1.67;;;;;14.20;99371.00;;;;10382144;28;20227;-76
2024/03/02 10:51:06;;;;;;;8.25;1.35;;;;;14.80;99366.00;;;;10353566;28;20302;-79
2024/03/02 10:56:09;;;;;;;3.83;1.05;;;;;14.80;99376.00;;;;10355592;28;20245;-81
2024/03/02 11:01:11;;;;;;;3.33;1.10;;;;;14.40;99363.00;;;;10380647;28;20297;-79
2024/03/02 11:06:13;;;;;;;5.63;1.40;;;;;13.90;99360.00;;;;10364575;28;20246;-79
2024/03/02 11:11:26;;;;;;;5.18;1.30;;;;;13.90;99365.00;;;;10384837;28;20331;-79
2024/03/02 11:16:35;;;;;;;6.43;0.90;;;;;14.30;99356.00;;;;10366446;28;20245;-79
2024/03/02 11:21:37;;;;;;;11.43;1.60;;;;;14.30;99324.00;;;;10364644;28;20223;-78
2024/03/02 11:26:40;;;;;;;6.88;1.63;;;;;15.80;99318.00;;;;10377388;28;20562;-79
2024/03/02 11:32:02;;;;;;;5.97;1.23;;;;;15.80;99329.00;;;;10369222;28;20222;-79
2024/03/02 11:37:04;;;;;;;4.57;1.83;;;;;16.50;99325.00;;;;10377906;28;20679;-79
2024/03/02 11:42:14;;;;;;;7.90;1.23;;;;;16.60;99309.00;;;;10380109;28;20230;-79
2024/03/02 11:47:16;;;;;;;10.50;1.63;;;;;16.40;99313.00;;;;10376514;28;20820;-79
2024/03/02 11:52:18;;;;;;;3.47;1.05;;;;;15.60;99320.00;;;;10379733;28;20235;-79
2024/03/02 11:57:24;;;;;;;4.43;1.38;;;;;16.40;99299.00;;;;10388987;28;20246;-80
2024/03/02 12:02:25;;;;;;;3.65;1.00;;;;;16.40;99285.00;;;;10409211;28;20234;-80
2024/03/02 12:07:26;;;;;;;6.13;1.40;;;;;16.10;99267.00;;;;10361923;28;20261;-83
2024/03/02 12:12:27;;;;;;;3.78;1.17;;;;;15.40;99279.00;;;;10404828;28;20915;-84
2024/03/02 12:17:29;;;;;;;7.07;1.63;;;;;15.00;99285.00;;;;10356497;28;20218;-83
2024/03/02 12:22:30;;;;;;;8.70;1.30;;;;;15.50;99270.00;;;;10370264;28;20223;-83
2024/03/02 12:27:32;;;;;;;6.28;1.55;;;;;15.30;99259.00;;;;10356103;28;20223;-83
2024/03/02 12:32:33;;;;;;;6.30;1.90;;;;;15.10;99258.00;;;;10379900;28;20224;-83
2024/03/02 12:37:42;;;;;;;3.55;1.13;;;;;15.20;99256.00;;;;10379384;28;20321;-83
2024/03/02 12:42:45;;;;;;;4.45;1.17;;;;;15.00;99255.00;;;;10393239;28;20668;-81
2024/03/02 12:47:46;;;;;;;4.43;1.13;;;;;14.60;99254.00;;;;10396089;28;20215;-83
2024/03/02 12:52:54;;;;;;;2.55;1.10;;;;;14.20;99250.00;;;;10343186;28;20785;-82
2024/03/02 12:57:56;;;;;;;5.75;1.30;;;;;14.50;99247.00;;;;10360532;28;20223;-83
2024/03/02 13:03:02;;;;;;;2.17;0.88;;;;;15.70;99225.00;;;;10317737;28;20289;-84
2024/03/02 13:08:04;;;;;;;4.95;1.00;;;;;16.90;99213.00;;;;10328559;28;20244;-83
2024/03/02 13:13:05;;;;;;;5.50;1.10;;;;;17.10;99209.00;;;;10359094;28;20639;-84
2024/03/02 13:18:07;;;;;;;4.05;1.02;;;;;16.50;99209.00;;;;10349849;28;20580;-77
2024/03/02 13:23:10;;;;;;;3.00;1.00;;;;;15.60;99218.00;;;;10361055;28;20223;-78
2024/03/02 13:28:11;;;;;;;4.65;0.98;;;;;14.70;99216.00;;;;10338324;28;20261;-77
2024/03/02 13:33:12;;;;;;;4.78;1.45;;;;;14.70;99221.00;;;;10359695;28;20226;-77
2024/03/02 13:38:14;;;;;;;3.78;1.33;;;;;14.70;99219.00;;;;10372869;28;20219;-78
2024/03/02 13:43:16;;;;;;;2.50;0.90;;;;;14.20;99214.00;;;;10361390;28;20322;-77
2024/03/02 13:48:17;;;;;;;2.10;0.75;;;;;14.00;99212.00;;;;10342362;28;20218;-78
2024/03/02 13:53:19;;;;;;;1.48;0.65;;;;;14.30;99208.00;;;;10360089;28;20951;-77
2024/03/02 13:58:20;;;;;;;2.67;1.02;;;;;14.20;99202.00;;;;10345321;28;20564;-77
2024/03/02 14:03:21;;;;;;;5.20;0.88;;;;;14.40;99181.00;;;;10374540;28;20227;-78
2024/03/02 14:08:25;;;;;;;2.00;0.70;;;;;14.20;99187.00;;;;10364856;28;20211;-78
2024/03/02 14:13:26;;;;;;;2.60;1.00;;;;;14.20;99182.00;;;;10376192;28;20265;-78
2024/03/02 14:18:27;;;;;;;2.40;0.77;;;;;14.00;99181.00;;;;10403705;28;20311;-79
2024/03/02 14:23:29;;;;;;;2.92;1.08;;;;;13.80;99187.00;;;;10374142;28;20219;-77
2024/03/02 14:28:30;;;;;;;2.10;0.80;;;;;13.80;99169.00;;;;10376730;28;20707;-79
2024/03/02 14:33:51;;;;;;;1.38;0.65;;;;;14.00;99166.00;;;;10399187;28;20222;-79
2024/03/02 14:38:52;;;;;;;1.63;0.90;;;;;13.80;99177.00;;;;10385302;28;20756;-79
2024/03/02 14:43:53;;;;;;;1.98;0.93;;;;;13.60;99171.00;;;;10363148;28;21006;-79
2024/03/02 14:48:55;;;;;;;1.60;0.70;;;;;13.40;99179.00;;;;10376743;28;20272;-80
2024/03/02 14:53:56;;;;;;;2.15;0.90;;;;;13.50;99169.00;;;;10368209;28;20233;-78
2024/03/02 14:58:57;;;;;;;5.72;1.25;;;;;13.70;99172.00;;;;10391635;28;20218;-78
2024/03/02 15:03:58;;;;;;;1.65;0.60;;;;;13.60;99171.00;;;;10374873;28;20233;-78
2024/03/02 15:09:01;;;;;;;8.95;1.10;;;;;13.40;99169.00;;;;10440183;28;20218;-78
2024/03/02 15:14:02;;;;;;;1.35;0.60;;;;;13.00;99175.00;;;;10388687;28;20222;-81
2024/03/02 15:19:03;;;;;;;1.83;0.95;;;;;12.60;99176.00;;;;10341949;28;21007;-79
2024/03/02 15:24:05;;;;;;;3.40;0.90;;;;;12.40;99181.00;;;;10364832;28;20870;-79
2024/03/02 15:29:06;;;;;;;4.78;1.20;;;;;12.20;99192.00;;;;10382405;28;20234;-79
2024/03/02 15:34:08;;;;;;;2.50;1.00;;;;;12.00;99174.00;;;;10343837;28;20588;-81
2024/03/02 15:39:09;;;;;;;3.67;1.17;;;;;12.00;99171.00;;;;10370282;28;20219;-83
2024/03/02 15:44:11;;;;;;;2.43;1.17;;;;;12.00;99161.00;;;;10380012;28;20716;-84
2024/03/02 15:49:13;;;;;;;3.43;1.30;;;;;12.10;99157.00;;;;10361381;28;20221;-85
2024/03/02 15:54:14;;;;;;;6.10;1.00;;;;;12.20;99158.00;;;;10372457;28;20313;-84
2024/03/02 15:59:15;;;;;;;1.43;0.97;;;;;12.20;99154.00;;;;10376674;28;20215;-84
2024/03/02 16:04:16;;;;;;;5.50;1.70;;;;;12.10;99146.00;;;;10331618;28;20218;-84
2024/03/02 16:09:18;;;;;;;4.33;1.50;;;;;12.10;99149.00;;;;10378306;28;20222;-82
2024/03/02 16:14:19;;;;;;;3.23;1.20;;;;;12.20;99148.00;;;;10382842;28;20226;-83
2024/03/02 16:19:20;;;;;;;2.80;1.00;;;;;12.10;99147.00;;;;10380278;28;20226;-84
2024/03/02 16:24:33;;;;;;;3.07;1.60;;;;;12.00;99147.00;;;;10374395;28;20249;-83
2024/03/02 16:29:34;;;;;;;8.37;3.53;;;;;11.80;99150.00;;;;10382082;28;20214;-84
2024/03/02 16:34:37;;;;;;;8.93;6.13;;;;;11.80;99141.00;;;;10363398;28;20217;-81
2024/03/02 16:39:39;;;;;;;5.50;1.67;;;;;11.70;99139.00;;;;10345741;28;20249;-82
2024/03/02 16:44:40;;;;;;;3.93;1.33;;;;;11.50;99150.00;;;;10382633;28;20877;-83
2024/03/02 16:49:45;;;;;;;2.40;1.77;;;;;11.30;99144.00;;;;10354131;28;20222;-78
2024/03/02 16:54:49;;;;;;;3.23;1.10;;;;;11.20;99147.00;;;;10359152;28;20305;-78
2024/03/02 16:59:51;;;;;;;5.93;1.80;;;;;11.20;99152.00;;;;10373888;28;20238;-79
2024/03/02 17:04:53;;;;;;;2.63;1.73;;;;;11.20;99154.00;;;;10368058;28;20242;-79
2024/03/02 17:09:56;;;;;;;3.67;1.73;;;;;11.00;99147.00;;;;10345939;28;20242;-77
2024/03/02 17:14:58;;;;;;;3.47;2.10;;;;;11.00;99149.00;;;;10359691;28;20313;-80
2024/03/02 17:20:01;;;;;;;3.50;2.50;;;;;10.90;99165.00;;;;10335638;28;20325;-78
2024/03/02 17:25:02;;;;;;;5.00;2.60;;;;;10.80;99164.00;;;;10352548;28;20226;-77
2024/03/02 17:30:04;;;;;;;4.50;2.80;;;;;10.70;99165.00;;;;10328337;28;20673;-78
2024/03/02 17:35:06;;;;;;;5.03;2.10;;;;;10.70;99166.00;;;;10370081;28;21066;-77
2024/03/02 17:40:09;;;;;;;5.30;2.60;;;;;10.60;99175.00;;;;10344428;28;20226;-79
2024/03/02 17:45:10;;;;;;;4.37;2.40;;;;;10.60;99179.00;;;;10391263;28;20253;-79
2024/03/02 17:50:11;;;;;;;4.77;2.83;;;;;10.50;99177.00;;;;10340247;28;20283;-78
2024/03/02 17:55:13;;;;;;;1.97;1.77;;;;;10.40;99169.00;;;;10358743;28;20257;-79
2024/03/02 18:00:15;;;;;;;3.73;2.23;;;;;10.40;99186.00;;;;10342691;28;20230;-80
2024/03/02 18:05:16;;;;;;;3.97;2.17;;;;;10.30;99186.00;;;;10348047;28;20245;-80
2024/03/02 18:10:18;;;;;;;4.27;2.27;;;;;10.20;99186.00;;;;10385223;28;20226;-80
2024/03/02 18:15:19;;;;;;;3.23;1.93;;;;;10.10;99173.00;;;;10384459;28;20265;-79
2024/03/02 18:20:20;;;;;;;3.47;2.20;;;;;10.10;99177.00;;;;10377999;28;20252;-79
2024/03/02 18:25:21;;;;;;;3.10;2.17;;;;;10.10;99175.00;;;;10375132;28;20218;-79
2024/03/02 18:30:23;;;;;;;2.10;1.60;;;;;10.00;99171.00;;;;10390235;28;20272;-79
2024/03/02 18:35:24;;;;;;;1.77;1.57;;;;;9.90;99169.00;;;;10358767;28;20274;-79
2024/03/02 18:40:25;;;;;;;2.23;1.40;;;;;9.80;99166.00;;;;10362721;28;20629;-78
2024/03/02 18:45:27;;;;;;;4.00;1.90;;;;;9.70;99167.00;;;;10369701;28;20269;-79
2024/03/02 18:50:28;;;;;;;2.33;1.70;;;;;9.60;99165.00;;;;10385712;28;20619;-80
2024/03/02 18:55:30;;;;;;;2.63;1.80;;;;;9.50;99164.00;;;;10372596;28;20289;-80
2024/03/02 19:00:31;;;;;;;3.73;1.50;;;;;9.50;99163.00;;;;10364238;28;20227;-81
2024/03/02 19:05:32;;;;;;;3.70;2.10;;;;;9.40;99168.00;;;;10385694;28;20569;-78
2024/03/02 19:10:34;;;;;;;4.40;2.00;;;;;9.30;99160.00;;;;10390502;28;20214;-83
2024/03/02 19:15:35;;;;;;;3.20;2.00;;;;;9.20;99161.00;;;;10373406;28;20795;-82
2024/03/02 19:20:36;;;;;;;2.73;2.10;;;;;9.10;99157.00;;;;10364064;28;20296;-81
2024/03/02 19:25:37;;;;;;;3.33;2.43;;;;;9.00;99146.00;;;;10371608;28;20337;-82
2024/03/02 19:30:38;;;;;;;2.53;2.20;;;;;8.90;99147.00;;;;10343798;28;20223;-83
2024/03/02 19:35:41;;;;;;;3.23;2.10;;;;;8.80;99158.00;;;;10358365;28;20298;-83
2024/03/02 19:40:42;;;;;;;4.87;2.77;;;;;8.70;99161.00;;;;10383033;28;20248;-83
2024/03/02 19:45:44;;;;;;;4.20;2.43;;;;;8.60;99158.00;;;;10368593;28;20310;-82
2024/03/02 19:50:47;;;;;;;4.30;2.60;;;;;8.50;99160.00;;;;10373305;28;20219;-81
2024/03/02 19:55:48;;;;;;;5.33;2.90;;;;;8.50;99160.00;;;;10340274;28;20227;-83
2024/03/02 20:00:49;;;;;;;4.50;2.47;;;;;8.70;99159.00;;;;10342110;28;20225;-82
2024/03/02 20:05:50;;;;;;;3.47;2.30;;;;;8.80;99151.00;;;;10354877;28;20222;-83
2024/03/02 20:10:51;;;;;;;4.47;2.17;;;;;8.90;99152.00;;;;10361196;28;20294;-83
2024/03/02 20:15:54;;;;;;;2.50;1.90;;;;;9.00;99144.00;;;;10368007;28;20313;-82
2024/03/02 20:20:55;;;;;;;1.57;1.37;;;;;9.10;99141.00;;;;10353790;28;20230;-76
2024/03/02 20:25:57;;;;;;;3.03;1.60;;;;;9.30;99141.00;;;;10358107;28;20341;-76
2024/03/02 20:30:59;;;;;;;1.97;1.60;;;;;9.30;99134.00;;;;10367876;28;21431;-77
2024/03/02 20:36:02;;;;;;;2.77;1.70;;;;;9.40;99137.00;;;;10329666;28;20740;-76
2024/03/02 20:41:04;;;;;;;5.40;1.73;;;;;9.50;99144.00;;;;10345865;28;20247;-77
2024/03/02 20:46:07;;;;;;;2.27;1.20;;;;;9.50;99142.00;;;;10360314;28;21080;-75
2024/03/02 20:51:08;;;;;;;3.03;1.40;;;;;9.60;99138.00;;;;10359294;28;21065;-76
2024/03/02 20:56:09;;;;;;;1.47;1.30;;;;;9.60;99129.00;;;;10376124;28;20226;-77
2024/03/02 21:01:10;;;;;;;1.83;1.40;;;;;9.60;99126.00;;;;10356677;28;20305;-79
2024/03/02 21:06:12;;;;;;;2.30;1.60;;;;;9.60;99132.00;;;;10370480;28;20230;-76
2024/03/02 21:11:14;;;;;;;1.43;1.33;;;;;9.50;99129.00;;;;10385119;28;20230;-76
2024/03/02 21:16:18;;;;;;;2.57;1.63;;;;;9.50;99133.00;;;;10332959;28;20289;-77
2024/03/02 21:21:20;;;;;;;3.00;1.47;;;;;9.60;99129.00;;;;10319217;28;20921;-76
2024/03/02 21:26:21;;;;;;;3.77;1.57;;;;;9.60;99147.00;;;;10345428;28;21746;-78
2024/03/02 21:31:22;;;;;;;3.43;1.63;;;;;9.50;99138.00;;;;10353378;28;20309;-79
2024/03/02 21:36:23;;;;;;;1.77;1.27;;;;;9.50;99132.00;;;;10360858;28;20234;-78
2024/03/02 21:41:24;;;;;;;2.10;1.67;;;;;9.50;99142.00;;;;10341230;28;20223;-78
2024/03/02 21:46:25;;;;;;;1.87;1.30;;;;;9.50;99147.00;;;;10351352;28;20237;-79
2024/03/02 21:51:27;;;;;;;1.27;1.10;;;;;9.50;99154.00;;;;10379455;28;20218;-79
2024/03/02 21:56:28;;;;;;;1.50;1.20;;;;;9.50;99147.00;;;;10353596;28;20229;-79
2024/03/02 22:01:29;;;;;;;1.60;1.50;;;;;9.50;99151.00;;;;10347473;28;20634;-78
2024/03/02 22:06:30;;;;;;;1.57;1.47;;;;;9.50;99151.00;;;;10360527;28;20306;-79
2024/03/02 22:11:32;;;;;;;2.33;1.77;;;;;9.60;99138.00;;;;10357060;28;20218;-78
2024/03/02 22:16:33;;;;;;;1.83;1.50;;;;;9.70;99135.00;;;;10366614;28;20229;-77
2024/03/02 22:21:34;;;;;;;1.33;1.20;;;;;9.70;99134.00;;;;10349975;28;20233;-77
2024/03/02 22:26:35;;;;;;;2.07;1.20;;;;;9.70;99125.00;;;;10340838;28;20249;-78
2024/03/02 22:31:36;;;;;;;2.77;1.60;;;;;9.70;99135.00;;;;10337398;28;20273;-78
2024/03/02 22:36:37;;;;;;;1.77;1.53;;;;;9.70;99129.00;;;;10319127;28;20220;-80
2024/03/02 22:41:39;;;;;;;1.63;1.43;;;;;9.80;99133.00;;;;10334446;28;20648;-78
2024/03/02 22:46:40;;;;;;;1.63;1.47;;;;;9.80;99125.00;;;;10322925;28;20333;-78
2024/03/02 22:51:41;;;;;;;1.60;1.50;;;;;9.80;99120.00;;;;10344322;28;20230;-78
2024/03/02 22:56:43;;;;;;;2.77;1.47;;;;;9.80;99123.00;;;;10319523;28;20594;-79
2024/03/02 23:01:44;;;;;;;1.60;1.50;;;;;9.80;99140.00;;;;10334766;28;20230;-77
2024/03/02 23:06:46;;;;;;;1.67;1.47;;;;;9.80;99142.00;;;;10321868;28;20257;-78
2024/03/02 23:11:48;;;;;;;2.20;1.80;;;;;9.90;99151.00;;;;10347453;28;20766;-78
2024/03/02 23:16:49;;;;;;;2.77;1.43;;;;;9.90;99162.00;;;;10362241;28;20215;-78
2024/03/02 23:21:51;;;;;;;3.13;1.47;;;;;9.80;99159.00;;;;10374521;28;20253;-78
2024/03/02 23:26:52;;;;;;;2.20;1.53;;;;;9.70;99167.00;;;;10377786;28;20222;-78
2024/03/02 23:31:53;;;;;;;2.23;1.53;;;;;9.70;99167.00;;;;10369909;28;20226;-79
2024/03/02 23:36:55;;;;;;;2.33;1.60;;;;;9.70;99169.00;;;;10368955;28;21666;-79
2024/03/02 23:41:56;;;;;;;1.73;1.40;;;;;9.70;99175.00;;;;10349991;28;20219;-78
2024/03/02 23:46:57;;;;;;;1.73;1.50;;;;;9.70;99169.00;;;;10343464;28;20306;-78
2024/03/02 23:51:59;;;;;;;4.97;1.50;;;;;9.70;99179.00;;;;10364627;28;20270;-78
2024/03/02 23:57:01;;;;;;;2.27;1.40;;;;;9.70;99195.00;;;;10338159;28;20233;-79
